sensor_id;sensor_type;location;lat;lon;timestamp;P1;durP1;ratioP1;P2;durP2;ratioP2
16839;SDS011;8536;52.150;11.572;2022-07-25T00:00:06;1.73;;;1.52;;
16839;SDS011;8536;52.150;11.572;2022-07-25T00:02:34;1.73;;;1.63;;
16839;SDS011;8536;52.150;11.572;2022-07-25T00:05:01;1.40;;;1.30;;
16839;SDS011;8536;52.150;11.572;2022-07-25T00:07:28;2.22;;;1.70;;
16839;SDS011;8536;52.150;11.572;2022-07-25T00:09:55;1.83;;;1.60;;
16839;SDS011;8536;52.150;11.572;2022-07-25T00:12:21;2.10;;;1.60;;
16839;SDS011;8536;52.150;11.572;2022-07-25T00:14:48;1.70;;;1.60;;
16839;SDS011;8536;52.150;11.572;2022-07-25T00:17:14;2.15;;;1.58;;
16839;SDS011;8536;52.150;11.572;2022-07-25T00:19:41;1.70;;;1.52;;
16839;SDS011;8536;52.150;11.572;2022-07-25T00:22:07;1.58;;;1.40;;
16839;SDS011;8536;52.150;11.572;2022-07-25T00:24:34;3.20;;;1.83;;
16839;SDS011;8536;52.150;11.572;2022-07-25T00:27:01;1.55;;;1.45;;
16839;SDS011;8536;52.150;11.572;2022-07-25T00:29:28;1.27;;;1.17;;
16839;SDS011;8536;52.150;11.572;2022-07-25T00:31:54;1.60;;;1.50;;
16839;SDS011;8536;52.150;11.572;2022-07-25T00:34:21;2.00;;;1.80;;
16839;SDS011;8536;52.150;11.572;2022-07-25T00:36:47;2.80;;;1.50;;
16839;SDS011;8536;52.150;11.572;2022-07-25T00:39:14;2.15;;;1.95;;
16839;SDS011;8536;52.150;11.572;2022-07-25T00:41:40;1.90;;;1.80;;
16839;SDS011;8536;52.150;11.572;2022-07-25T00:44:07;1.65;;;1.55;;
16839;SDS011;8536;52.150;11.572;2022-07-25T00:46:36;2.10;;;1.90;;
16839;SDS011;8536;52.150;11.572;2022-07-25T00:49:03;2.00;;;1.80;;
16839;SDS011;8536;52.150;11.572;2022-07-25T00:51:30;1.90;;;1.80;;
16839;SDS011;8536;52.150;11.572;2022-07-25T00:53:56;1.60;;;1.50;;
16839;SDS011;8536;52.150;11.572;2022-07-25T00:56:23;1.77;;;1.67;;
16839;SDS011;8536;52.150;11.572;2022-07-25T00:58:49;3.78;;;1.70;;
16839;SDS011;8536;52.150;11.572;2022-07-25T01:01:16;2.47;;;1.52;;
16839;SDS011;8536;52.150;11.572;2022-07-25T01:03:42;2.05;;;1.55;;
16839;SDS011;8536;52.150;11.572;2022-07-25T01:06:09;2.00;;;1.65;;
16839;SDS011;8536;52.150;11.572;2022-07-25T01:08:36;1.90;;;1.80;;
16839;SDS011;8536;52.150;11.572;2022-07-25T01:11:02;1.80;;;1.70;;
16839;SDS011;8536;52.150;11.572;2022-07-25T01:13:30;1.80;;;1.67;;
16839;SDS011;8536;52.150;11.572;2022-07-25T01:15:58;1.90;;;1.65;;
16839;SDS011;8536;52.150;11.572;2022-07-25T01:18:25;1.77;;;1.63;;
16839;SDS011;8536;52.150;11.572;2022-07-25T01:20:51;1.85;;;1.60;;
16839;SDS011;8536;52.150;11.572;2022-07-25T01:23:18;1.73;;;1.48;;
16839;SDS011;8536;52.150;11.572;2022-07-25T01:25:44;2.13;;;1.75;;
16839;SDS011;8536;52.150;11.572;2022-07-25T01:28:11;2.10;;;1.90;;
16839;SDS011;8536;52.150;11.572;2022-07-25T01:30:38;2.15;;;1.83;;
16839;SDS011;8536;52.150;11.572;2022-07-25T01:33:05;1.40;;;1.30;;
16839;SDS011;8536;52.150;11.572;2022-07-25T01:35:32;1.55;;;1.45;;
16839;SDS011;8536;52.150;11.572;2022-07-25T01:37:59;2.22;;;1.80;;
16839;SDS011;8536;52.150;11.572;2022-07-25T01:40:25;1.95;;;1.40;;
16839;SDS011;8536;52.150;11.572;2022-07-25T01:42:52;2.28;;;1.75;;
16839;SDS011;8536;52.150;11.572;2022-07-25T01:45:18;1.85;;;1.75;;
16839;SDS011;8536;52.150;11.572;2022-07-25T01:47:45;1.88;;;1.70;;
16839;SDS011;8536;52.150;11.572;2022-07-25T01:50:11;2.40;;;1.65;;
16839;SDS011;8536;52.150;11.572;2022-07-25T01:52:38;1.80;;;1.60;;
16839;SDS011;8536;52.150;11.572;2022-07-25T01:55:04;1.70;;;1.60;;
16839;SDS011;8536;52.150;11.572;2022-07-25T01:57:31;1.63;;;1.52;;
16839;SDS011;8536;52.150;11.572;2022-07-25T01:59:58;2.53;;;1.70;;
16839;SDS011;8536;52.150;11.572;2022-07-25T02:02:24;2.25;;;1.75;;
16839;SDS011;8536;52.150;11.572;2022-07-25T02:04:51;2.38;;;1.73;;
16839;SDS011;8536;52.150;11.572;2022-07-25T02:07:18;2.13;;;1.80;;
16839;SDS011;8536;52.150;11.572;2022-07-25T02:09:44;2.15;;;1.90;;
16839;SDS011;8536;52.150;11.572;2022-07-25T02:12:11;2.15;;;2.00;;
16839;SDS011;8536;52.150;11.572;2022-07-25T02:14:37;2.75;;;1.80;;
16839;SDS011;8536;52.150;11.572;2022-07-25T02:17:04;2.45;;;1.77;;
16839;SDS011;8536;52.150;11.572;2022-07-25T02:19:31;1.92;;;1.83;;
16839;SDS011;8536;52.150;11.572;2022-07-25T02:21:57;2.95;;;2.25;;
16839;SDS011;8536;52.150;11.572;2022-07-25T02:24:24;2.15;;;1.98;;
16839;SDS011;8536;52.150;11.572;2022-07-25T02:26:50;1.85;;;1.65;;
16839;SDS011;8536;52.150;11.572;2022-07-25T02:29:17;2.00;;;1.90;;
16839;SDS011;8536;52.150;11.572;2022-07-25T02:31:47;2.05;;;1.75;;
16839;SDS011;8536;52.150;11.572;2022-07-25T02:34:13;2.10;;;1.88;;
16839;SDS011;8536;52.150;11.572;2022-07-25T02:36:40;1.83;;;1.73;;
16839;SDS011;8536;52.150;11.572;2022-07-25T02:39:06;2.22;;;1.70;;
16839;SDS011;8536;52.150;11.572;2022-07-25T02:41:33;2.17;;;1.80;;
16839;SDS011;8536;52.150;11.572;2022-07-25T02:43:59;2.00;;;1.90;;
16839;SDS011;8536;52.150;11.572;2022-07-25T02:46:26;2.03;;;1.92;;
16839;SDS011;8536;52.150;11.572;2022-07-25T02:48:52;1.90;;;1.80;;
16839;SDS011;8536;52.150;11.572;2022-07-25T02:51:19;3.78;;;1.80;;
16839;SDS011;8536;52.150;11.572;2022-07-25T02:53:45;1.60;;;1.50;;
16839;SDS011;8536;52.150;11.572;2022-07-25T02:56:23;1.60;;;1.50;;
16839;SDS011;8536;52.150;11.572;2022-07-25T02:58:49;2.00;;;1.80;;
16839;SDS011;8536;52.150;11.572;2022-07-25T03:01:16;2.10;;;1.90;;
16839;SDS011;8536;52.150;11.572;2022-07-25T03:03:42;1.80;;;1.70;;
16839;SDS011;8536;52.150;11.572;2022-07-25T03:06:09;1.65;;;1.52;;
16839;SDS011;8536;52.150;11.572;2022-07-25T03:08:35;2.05;;;1.88;;
16839;SDS011;8536;52.150;11.572;2022-07-25T03:11:02;1.60;;;1.50;;
16839;SDS011;8536;52.150;11.572;2022-07-25T03:13:28;2.17;;;1.98;;
16839;SDS011;8536;52.150;11.572;2022-07-25T03:15:55;2.45;;;1.98;;
16839;SDS011;8536;52.150;11.572;2022-07-25T03:18:21;2.67;;;2.00;;
16839;SDS011;8536;52.150;11.572;2022-07-25T03:20:48;1.85;;;1.75;;
16839;SDS011;8536;52.150;11.572;2022-07-25T03:23:14;1.67;;;1.58;;
16839;SDS011;8536;52.150;11.572;2022-07-25T03:25:41;2.38;;;2.00;;
16839;SDS011;8536;52.150;11.572;2022-07-25T03:28:07;1.63;;;1.52;;
16839;SDS011;8536;52.150;11.572;2022-07-25T03:30:34;2.47;;;2.15;;
16839;SDS011;8536;52.150;11.572;2022-07-25T03:33:00;2.17;;;1.98;;
16839;SDS011;8536;52.150;11.572;2022-07-25T03:35:27;3.00;;;1.80;;
16839;SDS011;8536;52.150;11.572;2022-07-25T03:37:54;2.63;;;1.83;;
16839;SDS011;8536;52.150;11.572;2022-07-25T03:40:20;3.55;;;1.92;;
16839;SDS011;8536;52.150;11.572;2022-07-25T03:42:47;2.17;;;1.77;;
16839;SDS011;8536;52.150;11.572;2022-07-25T03:45:13;2.03;;;1.88;;
16839;SDS011;8536;52.150;11.572;2022-07-25T03:47:40;2.10;;;1.90;;
16839;SDS011;8536;52.150;11.572;2022-07-25T03:50:07;1.80;;;1.70;;
16839;SDS011;8536;52.150;11.572;2022-07-25T03:52:33;1.98;;;1.88;;
16839;SDS011;8536;52.150;11.572;2022-07-25T03:55:00;2.30;;;1.98;;
16839;SDS011;8536;52.150;11.572;2022-07-25T03:57:26;2.08;;;1.80;;
16839;SDS011;8536;52.150;11.572;2022-07-25T03:59:53;2.00;;;1.80;;
16839;SDS011;8536;52.150;11.572;2022-07-25T04:02:19;2.10;;;1.90;;
16839;SDS011;8536;52.150;11.572;2022-07-25T04:04:46;2.55;;;1.90;;
16839;SDS011;8536;52.150;11.572;2022-07-25T04:07:12;2.28;;;2.08;;
16839;SDS011;8536;52.150;11.572;2022-07-25T04:09:39;3.30;;;1.90;;
16839;SDS011;8536;52.150;11.572;2022-07-25T04:12:05;1.88;;;1.77;;
16839;SDS011;8536;52.150;11.572;2022-07-25T04:14:32;1.80;;;1.70;;
16839;SDS011;8536;52.150;11.572;2022-07-25T04:16:59;2.25;;;1.88;;
16839;SDS011;8536;52.150;11.572;2022-07-25T04:19:25;2.50;;;2.30;;
16839;SDS011;8536;52.150;11.572;2022-07-25T04:21:54;1.85;;;1.75;;
16839;SDS011;8536;52.150;11.572;2022-07-25T04:24:20;2.22;;;2.03;;
16839;SDS011;8536;52.150;11.572;2022-07-25T04:26:47;2.03;;;1.83;;
16839;SDS011;8536;52.150;11.572;2022-07-25T04:29:14;2.28;;;2.08;;
16839;SDS011;8536;52.150;11.572;2022-07-25T04:31:41;2.20;;;2.00;;
16839;SDS011;8536;52.150;11.572;2022-07-25T04:34:07;2.47;;;2.28;;
16839;SDS011;8536;52.150;11.572;2022-07-25T04:36:34;2.40;;;2.20;;
16839;SDS011;8536;52.150;11.572;2022-07-25T04:39:00;2.28;;;2.08;;
16839;SDS011;8536;52.150;11.572;2022-07-25T04:41:27;2.63;;;2.30;;
16839;SDS011;8536;52.150;11.572;2022-07-25T04:43:53;2.03;;;1.80;;
16839;SDS011;8536;52.150;11.572;2022-07-25T04:46:21;2.67;;;2.10;;
16839;SDS011;8536;52.150;11.572;2022-07-25T04:48:48;2.97;;;2.08;;
16839;SDS011;8536;52.150;11.572;2022-07-25T04:51:15;3.45;;;2.15;;
16839;SDS011;8536;52.150;11.572;2022-07-25T04:53:42;2.55;;;2.13;;
16839;SDS011;8536;52.150;11.572;2022-07-25T04:56:09;2.50;;;2.30;;
16839;SDS011;8536;52.150;11.572;2022-07-25T04:58:36;2.55;;;2.33;;
16839;SDS011;8536;52.150;11.572;2022-07-25T05:01:02;3.15;;;2.28;;
16839;SDS011;8536;52.150;11.572;2022-07-25T05:03:29;4.28;;;2.22;;
16839;SDS011;8536;52.150;11.572;2022-07-25T05:05:55;2.22;;;2.03;;
16839;SDS011;8536;52.150;11.572;2022-07-25T05:08:22;2.55;;;2.22;;
16839;SDS011;8536;52.150;11.572;2022-07-25T05:10:48;3.25;;;2.33;;
16839;SDS011;8536;52.150;11.572;2022-07-25T05:13:18;2.75;;;2.20;;
16839;SDS011;8536;52.150;11.572;2022-07-25T05:15:44;2.55;;;2.25;;
16839;SDS011;8536;52.150;11.572;2022-07-25T05:18:11;2.45;;;2.15;;
16839;SDS011;8536;52.150;11.572;2022-07-25T05:20:37;1.85;;;1.75;;
16839;SDS011;8536;52.150;11.572;2022-07-25T05:23:04;2.45;;;2.25;;
16839;SDS011;8536;52.150;11.572;2022-07-25T05:25:30;4.50;;;2.53;;
16839;SDS011;8536;52.150;11.572;2022-07-25T05:27:57;3.03;;;2.67;;
16839;SDS011;8536;52.150;11.572;2022-07-25T05:30:23;2.38;;;2.15;;
16839;SDS011;8536;52.150;11.572;2022-07-25T05:32:50;2.60;;;2.40;;
16839;SDS011;8536;52.150;11.572;2022-07-25T05:35:16;2.80;;;2.30;;
16839;SDS011;8536;52.150;11.572;2022-07-25T05:37:43;3.88;;;2.40;;
16839;SDS011;8536;52.150;11.572;2022-07-25T05:40:09;3.97;;;2.33;;
16839;SDS011;8536;52.150;11.572;2022-07-25T05:42:36;2.70;;;2.50;;
16839;SDS011;8536;52.150;11.572;2022-07-25T05:45:02;2.58;;;2.20;;
16839;SDS011;8536;52.150;11.572;2022-07-25T05:47:29;2.78;;;2.53;;
16839;SDS011;8536;52.150;11.572;2022-07-25T05:49:56;2.90;;;2.67;;
16839;SDS011;8536;52.150;11.572;2022-07-25T05:52:22;2.67;;;2.45;;
16839;SDS011;8536;52.150;11.572;2022-07-25T05:54:48;2.65;;;2.45;;
16839;SDS011;8536;52.150;11.572;2022-07-25T05:57:15;3.67;;;2.30;;
16839;SDS011;8536;52.150;11.572;2022-07-25T05:59:41;3.67;;;2.65;;
16839;SDS011;8536;52.150;11.572;2022-07-25T06:02:08;2.70;;;2.30;;
16839;SDS011;8536;52.150;11.572;2022-07-25T06:04:35;2.95;;;2.72;;
16839;SDS011;8536;52.150;11.572;2022-07-25T06:07:01;4.40;;;2.58;;
16839;SDS011;8536;52.150;11.572;2022-07-25T06:09:27;2.65;;;2.45;;
16839;SDS011;8536;52.150;11.572;2022-07-25T06:11:55;4.03;;;2.60;;
16839;SDS011;8536;52.150;11.572;2022-07-25T06:14:25;4.53;;;2.85;;
16839;SDS011;8536;52.150;11.572;2022-07-25T06:16:53;4.22;;;2.67;;
16839;SDS011;8536;52.150;11.572;2022-07-25T06:19:20;2.90;;;2.60;;
16839;SDS011;8536;52.150;11.572;2022-07-25T06:21:46;2.90;;;2.63;;
16839;SDS011;8536;52.150;11.572;2022-07-25T06:24:13;2.97;;;2.60;;
16839;SDS011;8536;52.150;11.572;2022-07-25T06:26:39;2.85;;;2.55;;
16839;SDS011;8536;52.150;11.572;2022-07-25T06:29:06;3.05;;;2.65;;
16839;SDS011;8536;52.150;11.572;2022-07-25T06:31:32;3.78;;;2.83;;
16839;SDS011;8536;52.150;11.572;2022-07-25T06:34:00;3.45;;;2.95;;
16839;SDS011;8536;52.150;11.572;2022-07-25T06:36:26;2.97;;;2.55;;
16839;SDS011;8536;52.150;11.572;2022-07-25T06:38:58;3.50;;;3.20;;
16839;SDS011;8536;52.150;11.572;2022-07-25T06:41:24;4.57;;;3.20;;
16839;SDS011;8536;52.150;11.572;2022-07-25T06:43:51;2.63;;;2.33;;
16839;SDS011;8536;52.150;11.572;2022-07-25T06:46:17;3.63;;;2.63;;
16839;SDS011;8536;52.150;11.572;2022-07-25T06:48:44;3.65;;;3.28;;
16839;SDS011;8536;52.150;11.572;2022-07-25T06:51:10;3.13;;;2.83;;
16839;SDS011;8536;52.150;11.572;2022-07-25T06:53:37;3.60;;;3.05;;
16839;SDS011;8536;52.150;11.572;2022-07-25T06:56:04;2.88;;;2.63;;
16839;SDS011;8536;52.150;11.572;2022-07-25T06:58:30;4.95;;;2.97;;
16839;SDS011;8536;52.150;11.572;2022-07-25T07:00:57;4.60;;;3.08;;
16839;SDS011;8536;52.150;11.572;2022-07-25T07:03:26;4.63;;;3.13;;
16839;SDS011;8536;52.150;11.572;2022-07-25T07:05:53;5.43;;;3.08;;
16839;SDS011;8536;52.150;11.572;2022-07-25T07:08:19;3.17;;;2.88;;
16839;SDS011;8536;52.150;11.572;2022-07-25T07:10:45;3.00;;;2.67;;
16839;SDS011;8536;52.150;11.572;2022-07-25T07:13:13;3.03;;;2.83;;
16839;SDS011;8536;52.150;11.572;2022-07-25T07:15:44;3.35;;;3.05;;
16839;SDS011;8536;52.150;11.572;2022-07-25T07:18:13;3.42;;;3.13;;
16839;SDS011;8536;52.150;11.572;2022-07-25T07:20:39;3.20;;;2.83;;
16839;SDS011;8536;52.150;11.572;2022-07-25T07:23:06;3.90;;;3.17;;
16839;SDS011;8536;52.150;11.572;2022-07-25T07:25:33;3.63;;;3.20;;
16839;SDS011;8536;52.150;11.572;2022-07-25T07:28:00;5.03;;;3.17;;
16839;SDS011;8536;52.150;11.572;2022-07-25T07:30:27;5.03;;;3.53;;
16839;SDS011;8536;52.150;11.572;2022-07-25T07:33:13;3.70;;;3.28;;
16839;SDS011;8536;52.150;11.572;2022-07-25T07:35:42;3.67;;;3.38;;
16839;SDS011;8536;52.150;11.572;2022-07-25T07:38:09;3.65;;;3.35;;
16839;SDS011;8536;52.150;11.572;2022-07-25T07:40:35;4.75;;;3.60;;
16839;SDS011;8536;52.150;11.572;2022-07-25T07:43:02;3.78;;;3.40;;
16839;SDS011;8536;52.150;11.572;2022-07-25T07:45:29;3.58;;;3.28;;
16839;SDS011;8536;52.150;11.572;2022-07-25T07:47:55;4.25;;;3.70;;
16839;SDS011;8536;52.150;11.572;2022-07-25T07:50:24;4.13;;;3.53;;
16839;SDS011;8536;52.150;11.572;2022-07-25T07:52:52;6.68;;;4.20;;
16839;SDS011;8536;52.150;11.572;2022-07-25T07:55:20;8.43;;;4.53;;
16839;SDS011;8536;52.150;11.572;2022-07-25T07:58:06;5.82;;;4.22;;
16839;SDS011;8536;52.150;11.572;2022-07-25T08:00:33;6.13;;;3.95;;
16839;SDS011;8536;52.150;11.572;2022-07-25T08:03:04;3.92;;;3.53;;
16839;SDS011;8536;52.150;11.572;2022-07-25T08:05:39;4.00;;;3.60;;
16839;SDS011;8536;52.150;11.572;2022-07-25T08:08:08;4.03;;;3.67;;
16839;SDS011;8536;52.150;11.572;2022-07-25T08:10:37;4.88;;;3.72;;
16839;SDS011;8536;52.150;11.572;2022-07-25T08:15:45;5.05;;;4.10;;
16839;SDS011;8536;52.150;11.572;2022-07-25T08:18:13;4.15;;;3.85;;
16839;SDS011;8536;52.150;11.572;2022-07-25T08:20:43;5.10;;;3.78;;
16839;SDS011;8536;52.150;11.572;2022-07-25T08:23:10;4.40;;;3.70;;
16839;SDS011;8536;52.150;11.572;2022-07-25T08:25:37;5.05;;;4.65;;
16839;SDS011;8536;52.150;11.572;2022-07-25T08:28:04;4.93;;;4.32;;
16839;SDS011;8536;52.150;11.572;2022-07-25T08:30:32;5.18;;;4.68;;
16839;SDS011;8536;52.150;11.572;2022-07-25T08:32:59;4.85;;;4.45;;
16839;SDS011;8536;52.150;11.572;2022-07-25T08:35:30;5.55;;;3.97;;
16839;SDS011;8536;52.150;11.572;2022-07-25T08:37:57;5.35;;;4.40;;
16839;SDS011;8536;52.150;11.572;2022-07-25T08:40:25;5.47;;;4.97;;
16839;SDS011;8536;52.150;11.572;2022-07-25T08:42:52;5.10;;;4.60;;
16839;SDS011;8536;52.150;11.572;2022-07-25T08:45:23;5.10;;;4.63;;
16839;SDS011;8536;52.150;11.572;2022-07-25T08:47:51;4.85;;;4.45;;
16839;SDS011;8536;52.150;11.572;2022-07-25T08:50:20;4.65;;;4.25;;
16839;SDS011;8536;52.150;11.572;2022-07-25T08:52:49;5.10;;;4.35;;
16839;SDS011;8536;52.150;11.572;2022-07-25T08:55:29;5.32;;;4.82;;
16839;SDS011;8536;52.150;11.572;2022-07-25T08:57:56;5.10;;;4.53;;
16839;SDS011;8536;52.150;11.572;2022-07-25T09:00:23;5.07;;;4.57;;
16839;SDS011;8536;52.150;11.572;2022-07-25T09:05:19;5.80;;;4.85;;
16839;SDS011;8536;52.150;11.572;2022-07-25T09:07:46;5.40;;;4.95;;
16839;SDS011;8536;52.150;11.572;2022-07-25T09:15:37;5.20;;;4.70;;
16839;SDS011;8536;52.150;11.572;2022-07-25T09:18:06;5.63;;;5.18;;
16839;SDS011;8536;52.150;11.572;2022-07-25T09:23:06;6.40;;;5.80;;
16839;SDS011;8536;52.150;11.572;2022-07-25T09:25:33;6.32;;;5.80;;
16839;SDS011;8536;52.150;11.572;2022-07-25T09:28:13;6.20;;;5.65;;
16839;SDS011;8536;52.150;11.572;2022-07-25T09:30:53;5.93;;;5.32;;
16839;SDS011;8536;52.150;11.572;2022-07-25T09:33:21;5.30;;;4.80;;
16839;SDS011;8536;52.150;11.572;2022-07-25T09:35:48;6.38;;;5.60;;
16839;SDS011;8536;52.150;11.572;2022-07-25T09:38:15;6.35;;;5.75;;
16839;SDS011;8536;52.150;11.572;2022-07-25T09:40:53;6.53;;;5.93;;
16839;SDS011;8536;52.150;11.572;2022-07-25T09:43:36;7.95;;;5.20;;
16839;SDS011;8536;52.150;11.572;2022-07-25T09:46:03;6.38;;;5.70;;
16839;SDS011;8536;52.150;11.572;2022-07-25T09:48:30;6.68;;;6.05;;
16839;SDS011;8536;52.150;11.572;2022-07-25T09:50:58;5.95;;;5.45;;
16839;SDS011;8536;52.150;11.572;2022-07-25T09:53:24;5.93;;;5.40;;
16839;SDS011;8536;52.150;11.572;2022-07-25T09:55:51;6.00;;;5.50;;
16839;SDS011;8536;52.150;11.572;2022-07-25T09:58:22;6.28;;;5.68;;
16839;SDS011;8536;52.150;11.572;2022-07-25T10:00:50;6.70;;;5.95;;
16839;SDS011;8536;52.150;11.572;2022-07-25T10:03:21;8.38;;;5.63;;
16839;SDS011;8536;52.150;11.572;2022-07-25T10:06:07;9.30;;;6.45;;
16839;SDS011;8536;52.150;11.572;2022-07-25T10:08:40;6.00;;;5.50;;
16839;SDS011;8536;52.150;11.572;2022-07-25T10:11:20;6.15;;;5.55;;
16839;SDS011;8536;52.150;11.572;2022-07-25T10:13:47;6.03;;;5.40;;
16839;SDS011;8536;52.150;11.572;2022-07-25T10:16:15;6.20;;;5.60;;
16839;SDS011;8536;52.150;11.572;2022-07-25T10:18:53;6.07;;;5.68;;
16839;SDS011;8536;52.150;11.572;2022-07-25T10:21:21;6.55;;;5.95;;
16839;SDS011;8536;52.150;11.572;2022-07-25T10:24:11;6.10;;;5.60;;
16839;SDS011;8536;52.150;11.572;2022-07-25T10:26:38;7.13;;;6.43;;
16839;SDS011;8536;52.150;11.572;2022-07-25T10:29:10;6.95;;;6.35;;
16839;SDS011;8536;52.150;11.572;2022-07-25T10:31:41;6.05;;;5.55;;
16839;SDS011;8536;52.150;11.572;2022-07-25T10:34:26;6.28;;;5.78;;
16839;SDS011;8536;52.150;11.572;2022-07-25T10:36:53;6.00;;;5.50;;
16839;SDS011;8536;52.150;11.572;2022-07-25T10:39:22;6.57;;;6.07;;
16839;SDS011;8536;52.150;11.572;2022-07-25T10:41:52;5.78;;;5.28;;
16839;SDS011;8536;52.150;11.572;2022-07-25T10:44:20;6.40;;;5.80;;
16839;SDS011;8536;52.150;11.572;2022-07-25T10:46:47;6.28;;;5.68;;
16839;SDS011;8536;52.150;11.572;2022-07-25T10:49:22;6.70;;;6.20;;
16839;SDS011;8536;52.150;11.572;2022-07-25T10:51:58;6.70;;;6.10;;
16839;SDS011;8536;52.150;11.572;2022-07-25T10:54:30;6.18;;;5.68;;
16839;SDS011;8536;52.150;11.572;2022-07-25T10:57:02;6.45;;;5.95;;
16839;SDS011;8536;52.150;11.572;2022-07-25T11:02:00;6.25;;;5.75;;
16839;SDS011;8536;52.150;11.572;2022-07-25T11:04:27;5.97;;;5.57;;
16839;SDS011;8536;52.150;11.572;2022-07-25T11:06:54;6.57;;;6.03;;
16839;SDS011;8536;52.150;11.572;2022-07-25T11:09:22;6.00;;;5.50;;
16839;SDS011;8536;52.150;11.572;2022-07-25T11:11:53;6.05;;;5.55;;
16839;SDS011;8536;52.150;11.572;2022-07-25T11:16:51;6.80;;;6.20;;
16839;SDS011;8536;52.150;11.572;2022-07-25T11:19:20;6.35;;;5.78;;
16839;SDS011;8536;52.150;11.572;2022-07-25T11:21:51;6.80;;;6.20;;
16839;SDS011;8536;52.150;11.572;2022-07-25T11:24:35;7.18;;;6.50;;
16839;SDS011;8536;52.150;11.572;2022-07-25T11:27:02;7.45;;;6.72;;
16839;SDS011;8536;52.150;11.572;2022-07-25T11:29:37;7.13;;;6.53;;
16839;SDS011;8536;52.150;11.572;2022-07-25T11:32:05;6.97;;;6.47;;
16839;SDS011;8536;52.150;11.572;2022-07-25T11:34:38;7.65;;;6.88;;
16839;SDS011;8536;52.150;11.572;2022-07-25T11:37:10;6.72;;;6.15;;
16839;SDS011;8536;52.150;11.572;2022-07-25T11:39:37;6.95;;;6.35;;
16839;SDS011;8536;52.150;11.572;2022-07-25T11:42:09;6.80;;;6.20;;
16839;SDS011;8536;52.150;11.572;2022-07-25T11:47:31;6.55;;;5.95;;
16839;SDS011;8536;52.150;11.572;2022-07-25T11:49:59;7.25;;;6.20;;
16839;SDS011;8536;52.150;11.572;2022-07-25T11:52:31;7.57;;;6.60;;
16839;SDS011;8536;52.150;11.572;2022-07-25T11:55:00;6.57;;;5.97;;
16839;SDS011;8536;52.150;11.572;2022-07-25T11:57:29;7.20;;;6.50;;
16839;SDS011;8536;52.150;11.572;2022-07-25T11:59:57;6.55;;;5.95;;
16839;SDS011;8536;52.150;11.572;2022-07-25T12:02:30;6.35;;;5.85;;
16839;SDS011;8536;52.150;11.572;2022-07-25T12:10:05;6.30;;;5.72;;
16839;SDS011;8536;52.150;11.572;2022-07-25T12:12:40;6.53;;;5.90;;
16839;SDS011;8536;52.150;11.572;2022-07-25T12:15:21;6.13;;;5.68;;
16839;SDS011;8536;52.150;11.572;2022-07-25T12:17:53;6.22;;;5.72;;
16839;SDS011;8536;52.150;11.572;2022-07-25T12:20:22;6.57;;;6.07;;
16839;SDS011;8536;52.150;11.572;2022-07-25T12:22:55;6.45;;;5.95;;
16839;SDS011;8536;52.150;11.572;2022-07-25T12:25:23;6.40;;;5.90;;
16839;SDS011;8536;52.150;11.572;2022-07-25T12:27:56;6.50;;;5.90;;
16839;SDS011;8536;52.150;11.572;2022-07-25T12:30:24;6.50;;;6.00;;
16839;SDS011;8536;52.150;11.572;2022-07-25T12:32:51;7.28;;;6.05;;
16839;SDS011;8536;52.150;11.572;2022-07-25T12:35:18;6.47;;;5.97;;
16839;SDS011;8536;52.150;11.572;2022-07-25T12:37:44;5.88;;;5.43;;
16839;SDS011;8536;52.150;11.572;2022-07-25T12:40:11;6.28;;;5.78;;
16839;SDS011;8536;52.150;11.572;2022-07-25T12:42:39;6.15;;;5.55;;
16839;SDS011;8536;52.150;11.572;2022-07-25T12:45:06;6.32;;;5.82;;
16839;SDS011;8536;52.150;11.572;2022-07-25T12:47:33;6.32;;;5.82;;
16839;SDS011;8536;52.150;11.572;2022-07-25T12:50:00;6.00;;;5.60;;
16839;SDS011;8536;52.150;11.572;2022-07-25T12:52:27;6.28;;;5.82;;
16839;SDS011;8536;52.150;11.572;2022-07-25T12:54:53;6.10;;;5.70;;
16839;SDS011;8536;52.150;11.572;2022-07-25T12:57:20;6.20;;;5.63;;
16839;SDS011;8536;52.150;11.572;2022-07-25T12:59:47;6.35;;;5.85;;
16839;SDS011;8536;52.150;11.572;2022-07-25T13:02:14;6.05;;;5.55;;
16839;SDS011;8536;52.150;11.572;2022-07-25T13:04:40;5.32;;;4.93;;
16839;SDS011;8536;52.150;11.572;2022-07-25T13:07:07;5.85;;;5.35;;
16839;SDS011;8536;52.150;11.572;2022-07-25T13:09:33;6.50;;;6.00;;
16839;SDS011;8536;52.150;11.572;2022-07-25T13:12:00;6.30;;;5.80;;
16839;SDS011;8536;52.150;11.572;2022-07-25T13:14:26;5.43;;;4.97;;
16839;SDS011;8536;52.150;11.572;2022-07-25T13:16:53;5.72;;;5.32;;
16839;SDS011;8536;52.150;11.572;2022-07-25T13:19:19;6.00;;;5.60;;
16839;SDS011;8536;52.150;11.572;2022-07-25T13:21:46;6.07;;;5.57;;
16839;SDS011;8536;52.150;11.572;2022-07-25T13:24:13;5.93;;;5.43;;
16839;SDS011;8536;52.150;11.572;2022-07-25T13:26:39;5.85;;;5.45;;
16839;SDS011;8536;52.150;11.572;2022-07-25T13:29:06;5.57;;;5.18;;
16839;SDS011;8536;52.150;11.572;2022-07-25T13:31:34;6.07;;;5.50;;
16839;SDS011;8536;52.150;11.572;2022-07-25T13:34:01;5.90;;;5.40;;
16839;SDS011;8536;52.150;11.572;2022-07-25T13:36:27;6.00;;;5.43;;
16839;SDS011;8536;52.150;11.572;2022-07-25T13:38:54;6.10;;;5.50;;
16839;SDS011;8536;52.150;11.572;2022-07-25T13:41:20;5.90;;;5.50;;
16839;SDS011;8536;52.150;11.572;2022-07-25T13:43:48;5.78;;;5.32;;
16839;SDS011;8536;52.150;11.572;2022-07-25T13:46:14;5.97;;;5.55;;
16839;SDS011;8536;52.150;11.572;2022-07-25T13:48:42;5.47;;;4.97;;
16839;SDS011;8536;52.150;11.572;2022-07-25T13:51:09;5.82;;;5.43;;
16839;SDS011;8536;52.150;11.572;2022-07-25T13:53:35;5.80;;;5.30;;
16839;SDS011;8536;52.150;11.572;2022-07-25T13:56:02;5.95;;;5.38;;
16839;SDS011;8536;52.150;11.572;2022-07-25T13:58:28;5.38;;;4.97;;
16839;SDS011;8536;52.150;11.572;2022-07-25T14:00:55;5.68;;;5.28;;
16839;SDS011;8536;52.150;11.572;2022-07-25T14:03:21;5.65;;;5.10;;
16839;SDS011;8536;52.150;11.572;2022-07-25T14:05:48;5.90;;;5.47;;
16839;SDS011;8536;52.150;11.572;2022-07-25T14:08:15;5.68;;;5.20;;
16839;SDS011;8536;52.150;11.572;2022-07-25T14:10:42;5.50;;;5.00;;
16839;SDS011;8536;52.150;11.572;2022-07-25T14:13:09;5.72;;;5.15;;
16839;SDS011;8536;52.150;11.572;2022-07-25T14:15:36;6.03;;;5.53;;
16839;SDS011;8536;52.150;11.572;2022-07-25T14:18:03;4.90;;;4.50;;
16839;SDS011;8536;52.150;11.572;2022-07-25T14:20:29;5.68;;;5.18;;
16839;SDS011;8536;52.150;11.572;2022-07-25T14:22:56;5.65;;;5.15;;
16839;SDS011;8536;52.150;11.572;2022-07-25T14:25:22;6.35;;;5.25;;
16839;SDS011;8536;52.150;11.572;2022-07-25T14:27:49;5.18;;;4.57;;
16839;SDS011;8536;52.150;11.572;2022-07-25T14:30:15;5.50;;;5.00;;
16839;SDS011;8536;52.150;11.572;2022-07-25T14:32:42;5.22;;;4.90;;
16839;SDS011;8536;52.150;11.572;2022-07-25T14:35:08;5.53;;;5.13;;
16839;SDS011;8536;52.150;11.572;2022-07-25T14:37:36;4.72;;;4.43;;
16839;SDS011;8536;52.150;11.572;2022-07-25T14:40:03;4.72;;;4.22;;
16839;SDS011;8536;52.150;11.572;2022-07-25T14:42:31;4.80;;;4.40;;
16839;SDS011;8536;52.150;11.572;2022-07-25T14:44:58;4.95;;;4.55;;
16839;SDS011;8536;52.150;11.572;2022-07-25T14:47:25;4.95;;;4.55;;
16839;SDS011;8536;52.150;11.572;2022-07-25T14:49:52;4.43;;;4.13;;
16839;SDS011;8536;52.150;11.572;2022-07-25T14:52:19;4.65;;;4.25;;
16839;SDS011;8536;52.150;11.572;2022-07-25T14:54:45;4.68;;;4.35;;
16839;SDS011;8536;52.150;11.572;2022-07-25T14:57:12;5.05;;;4.63;;
16839;SDS011;8536;52.150;11.572;2022-07-25T14:59:39;4.55;;;4.15;;
16839;SDS011;8536;52.150;11.572;2022-07-25T15:02:05;4.90;;;4.50;;
16839;SDS011;8536;52.150;11.572;2022-07-25T15:04:32;4.78;;;4.20;;
16839;SDS011;8536;52.150;11.572;2022-07-25T15:06:59;4.88;;;4.43;;
16839;SDS011;8536;52.150;11.572;2022-07-25T15:09:25;4.47;;;4.18;;
16839;SDS011;8536;52.150;11.572;2022-07-25T15:11:52;4.60;;;4.20;;
16839;SDS011;8536;52.150;11.572;2022-07-25T15:14:19;4.50;;;4.10;;
16839;SDS011;8536;52.150;11.572;2022-07-25T15:16:45;4.43;;;4.00;;